Winthrop, WA (98862)

3:11 AM PDT on September 19, 2014 (GMT -0700)
Lower Studhorse | Change Station
CLOSE
Current Station
Personal Weather Station
Location: Winthrop, WA
Elevation: 2087 ft
Nearby Weather Stations

Elev 2087 ft 48.48 °N, 120.17 °W | Updated 1 second ago

Overcast
Overcast
61.5 °F
Feels Like 61.5 °F
N
1.8
Wind Variable Wind from ENE
Gusts 2.5 mph

Today
High -- | Low -- °F
--% Chance of Precip.
Yesterday
High -- | Low -- °F
Precip. -- in
6:43 AM 7:04 PM
Waning Crescent, 20% visible
Pressure 29.85 in
Visibility 10.0 miles
Clouds Few 11000 ft
Dew Point 45 °F
Humidity 55%
Rainfall 0.00 in
Snow Depth Not available.
UV 0 out of 12
Pollen .40 out of 12
Air Quality Not available.
Flu Activity Not available.
METAR KOMK 190953Z AUTO 00000KT 10SM FEW110 16/10 A2986 RMK AO2 SLP106 T01560100

More Conditions Fewer Conditions

Pressure 29.85 in
Visibility 10.0 miles
Clouds Few 11000 ft
Dew Point 45 °F
Humidity 55%
Rainfall 0.00 in
Snow Depth Not available.
UV 0 out of 12
Pollen .40 out of 12
Air Quality Not available.
Flu Activity Not available.
METAR KOMK 190953Z AUTO 00000KT 10SM FEW110 16/10 A2986 RMK AO2 SLP106 T01560100

More Conditions Fewer Conditions

10-Day Weather Forecast

Almanac

Astronomy

Sep. 19, 2014 Rise Set
Actual Time 6:43 AM PDT 7:04 PM PDT
Civil Twilight 6:11 AM PDT 7:35 PM PDT
Nautical Twilight 5:34 AM PDT 8:12 PM PDT
Astronomical Twilight 4:56 AM PDT 8:51 PM PDT
Moon 2:16 AM PDT 4:50 PM PDT
Length of Visible Light 13h 24m
Length of Day
12h 21m
Tomorrow will be 3m 30s shorter.
Waning Crescent, 20% of the Moon is Illuminated
Today
Waning Crescent
Sep 24
New
Oct 1
First Quarter
Oct 8
Full
Oct 15
Last Quarter

Today's Extremes

State Highs State Lows

Community

WunderPhotos

Upload Photos

1,754,583 photos uploaded!

Nearby

Snow Depth

Station Depth Elevation
White Pass E.S. 0 in 4500 ft
Thunder Basin 2 in 4200 ft
Harts Pass 0 in 6500 ft
Mf Nooksack 3 in 4980 ft
Park Creek Ridge 0 in 4600 ft

Earthquake Activity

City Distance Mag. Time & Date
No recent earthquake activity has been reported nearby.
Minimum magnitude displayed is 2.5.

Coastal Water Temperatures

Place Temperature
No Stations Reporting

Nearby Weather Stations